UTA560 URML-UUWW
Flight info
| Callsign | UTA560 |
|---|---|
| Flight time | N/A |
| Altitude | 35000 |
| Route | RIRAN2P RIRAN DCT AKT N60 ATR/K0850F340 W324 URL/K0852F360 DCT TEDKI L736 GEKPA DCT NATOP DCT ULKID DCT DOSAG DCT OLOPI OLOPI3A |
| Aircraft | B738/M-SDE2E3FGHIRWXY/LB1 |
Departure
| Time | 2026-04-15 09:36 |
|---|---|
| Airport | Makhachkala Uytash International Airport (URML) |
Arrival
| Time | N/A |
|---|---|
| Airport | Vnukovo International Airport (UUWW) |
| Time | Latitude | Longitude | Altitude | Speed | Heading |
|---|---|---|---|---|---|
| 2026-04-15 09:21 | 42.81970 | 47.65570 | 12 ft | 0 kts | 59° |
| 2026-04-15 09:27 | 42.81966 | 47.65562 | 12 ft | 2 kts | 59° |
| 2026-04-15 09:27 | 42.81959 | 47.65545 | 12 ft | 2 kts | 60° |
| 2026-04-15 09:27 | 42.81951 | 47.65527 | 12 ft | 2 kts | 71° |
| 2026-04-15 09:27 | 42.81949 | 47.65506 | 12 ft | 2 kts | 91° |
| 2026-04-15 09:28 | 42.81951 | 47.65486 | 11 ft | 2 kts | 110° |
| 2026-04-15 09:28 | 42.81958 | 47.65468 | 11 ft | 2 kts | 128° |
| 2026-04-15 09:28 | 42.81967 | 47.65455 | 11 ft | 0 kts | 145° |
| 2026-04-15 09:28 | 42.81972 | 47.65450 | 10 ft | 1 kts | 149° |
| 2026-04-15 09:29 | 42.81973 | 47.65450 | 10 ft | 0 kts | 149° |
| 2026-04-15 09:31 | 42.81961 | 47.65460 | 11 ft | 7 kts | 148° |
| 2026-04-15 09:31 | 42.81909 | 47.65506 | 12 ft | 8 kts | 147° |
| 2026-04-15 09:31 | 42.81866 | 47.65547 | 13 ft | 6 kts | 137° |
| 2026-04-15 09:31 | 42.81827 | 47.65583 | 13 ft | 7 kts | 169° |
| 2026-04-15 09:32 | 42.81771 | 47.65553 | 13 ft | 10 kts | 218° |
| 2026-04-15 09:32 | 42.81720 | 47.65470 | 13 ft | 10 kts | 238° |
| 2026-04-15 09:32 | 42.81682 | 47.65379 | 16 ft | 13 kts | 242° |
| 2026-04-15 09:32 | 42.81611 | 47.65309 | 20 ft | 17 kts | 168° |
| 2026-04-15 09:33 | 42.81479 | 47.65414 | 20 ft | 26 kts | 148° |
| 2026-04-15 09:33 | 42.81323 | 47.65546 | 22 ft | 25 kts | 148° |
| 2026-04-15 09:33 | 42.81174 | 47.65674 | 24 ft | 25 kts | 148° |
| 2026-04-15 09:33 | 42.81026 | 47.65801 | 24 ft | 24 kts | 148° |
| 2026-04-15 09:34 | 42.80899 | 47.65910 | 22 ft | 16 kts | 148° |
| 2026-04-15 09:34 | 42.80799 | 47.65994 | 21 ft | 16 kts | 148° |
| 2026-04-15 09:34 | 42.80749 | 47.66079 | 21 ft | 8 kts | 106° |
| 2026-04-15 09:34 | 42.80724 | 47.66133 | 22 ft | 5 kts | 154° |
| 2026-04-15 09:35 | 42.80697 | 47.66121 | 23 ft | 4 kts | 234° |
| 2026-04-15 09:35 | 42.80703 | 47.66076 | 23 ft | 10 kts | 310° |
| 2026-04-15 09:35 | 42.80790 | 47.65999 | 21 ft | 32 kts | 329° |
| 2026-04-15 09:35 | 42.81225 | 47.65630 | 24 ft | 113 kts | 328° |
| 2026-04-15 09:36 | 42.82084 | 47.64897 | 185 ft | 166 kts | 328° |
| 2026-04-15 09:36 | 42.83006 | 47.64107 | 1378 ft | 157 kts | 327° |
| 2026-04-15 09:36 | 42.83909 | 47.63332 | 2163 ft | 161 kts | 326° |
| 2026-04-15 09:36 | 42.84895 | 47.62503 | 2751 ft | 174 kts | 325° |
| 2026-04-15 09:37 | 42.85936 | 47.61622 | 3432 ft | 182 kts | 325° |
| 2026-04-15 09:37 | 42.87024 | 47.60695 | 4162 ft | 190 kts | 324° |
| 2026-04-15 09:37 | 42.88153 | 47.59729 | 4876 ft | 198 kts | 324° |
| 2026-04-15 09:37 | 42.89381 | 47.58806 | 5635 ft | 208 kts | 336° |
| 2026-04-15 09:38 | 42.90861 | 47.58737 | 6397 ft | 228 kts | 8° |
| 2026-04-15 09:38 | 42.92269 | 47.59797 | 7158 ft | 247 kts | 36° |
| 2026-04-15 09:38 | 42.93291 | 47.61755 | 7896 ft | 264 kts | 64° |
| 2026-04-15 09:38 | 42.93623 | 47.64246 | 8670 ft | 272 kts | 88° |
| 2026-04-15 09:39 | 42.93657 | 47.66818 | 9393 ft | 274 kts | 76° |
| 2026-04-15 09:39 | 42.94385 | 47.69098 | 9994 ft | 260 kts | 44° |
| 2026-04-15 09:39 | 42.95692 | 47.70729 | 10187 ft | 252 kts | 30° |
| 2026-04-15 09:39 | 42.97093 | 47.72173 | 10179 ft | 252 kts | 32° |
| 2026-04-15 09:40 | 42.98403 | 47.73756 | 10185 ft | 254 kts | 37° |
| 2026-04-15 09:40 | 42.99645 | 47.75474 | 10187 ft | 255 kts | 39° |
| 2026-04-15 09:40 | 43.00859 | 47.77241 | 10175 ft | 255 kts | 40° |
| 2026-04-15 09:40 | 43.02071 | 47.79015 | 10177 ft | 254 kts | 39° |
| 2026-04-15 09:41 | 43.03290 | 47.80784 | 10189 ft | 254 kts | 39° |
| 2026-04-15 09:41 | 43.04468 | 47.82611 | 10186 ft | 257 kts | 47° |
| 2026-04-15 09:41 | 43.05275 | 47.84849 | 10236 ft | 280 kts | 71° |
| 2026-04-15 09:41 | 43.05606 | 47.87575 | 10685 ft | 297 kts | 80° |
| 2026-04-15 09:42 | 43.05824 | 47.90425 | 11128 ft | 312 kts | 81° |
| 2026-04-15 09:42 | 43.06070 | 47.93432 | 11669 ft | 324 kts | 80° |
| 2026-04-15 09:42 | 43.06361 | 47.96527 | 12180 ft | 337 kts | 79° |
| 2026-04-15 09:42 | 43.06689 | 47.99740 | 12675 ft | 351 kts | 79° |
| 2026-04-15 09:43 | 43.07045 | 48.03104 | 13185 ft | 363 kts | 79° |
| 2026-04-15 09:43 | 43.07410 | 48.06534 | 13959 ft | 367 kts | 79° |
| 2026-04-15 09:43 | 43.07777 | 48.09983 | 14771 ft | 370 kts | 79° |
| 2026-04-15 09:43 | 43.08143 | 48.13458 | 15658 ft | 371 kts | 79° |
| 2026-04-15 09:44 | 43.08511 | 48.16960 | 16471 ft | 373 kts | 79° |
| 2026-04-15 09:44 | 43.08874 | 48.20437 | 17279 ft | 375 kts | 79° |
| 2026-04-15 09:44 | 43.09242 | 48.23956 | 18095 ft | 375 kts | 79° |
| 2026-04-15 09:44 | 43.09608 | 48.27485 | 18844 ft | 378 kts | 79° |
| 2026-04-15 09:45 | 43.09975 | 48.31023 | 19591 ft | 380 kts | 79° |
| 2026-04-15 09:45 | 43.10345 | 48.34589 | 20283 ft | 383 kts | 79° |
| 2026-04-15 09:45 | 43.10720 | 48.38220 | 20961 ft | 386 kts | 80° |
| 2026-04-15 09:45 | 43.11095 | 48.41869 | 21678 ft | 387 kts | 80° |
| 2026-04-15 09:46 | 43.11467 | 48.45499 | 22315 ft | 390 kts | 80° |
| 2026-04-15 09:46 | 43.11843 | 48.49179 | 22949 ft | 392 kts | 80° |
| 2026-04-15 09:46 | 43.12215 | 48.52837 | 23599 ft | 393 kts | 80° |
| 2026-04-15 09:46 | 43.12592 | 48.56551 | 24151 ft | 397 kts | 80° |
| 2026-04-15 09:47 | 43.12991 | 48.60318 | 24754 ft | 400 kts | 79° |
| 2026-04-15 09:47 | 43.13504 | 48.64065 | 25356 ft | 402 kts | 75° |
| 2026-04-15 09:47 | 43.14260 | 48.67720 | 25905 ft | 404 kts | 71° |
| 2026-04-15 09:47 | 43.15232 | 48.71318 | 26480 ft | 406 kts | 68° |
| 2026-04-15 09:48 | 43.16320 | 48.74918 | 27038 ft | 409 kts | 66° |
| 2026-04-15 09:48 | 43.17462 | 48.78484 | 27600 ft | 411 kts | 65° |
| 2026-04-15 09:48 | 43.18650 | 48.82109 | 28112 ft | 414 kts | 65° |
| 2026-04-15 09:48 | 43.19822 | 48.85681 | 28630 ft | 416 kts | 66° |
| 2026-04-15 09:49 | 43.21013 | 48.89330 | 29132 ft | 419 kts | 66° |
| 2026-04-15 09:49 | 43.22187 | 48.92954 | 29628 ft | 421 kts | 66° |
| 2026-04-15 09:49 | 43.23376 | 48.96650 | 30132 ft | 423 kts | 66° |
| 2026-04-15 09:49 | 43.24556 | 49.00340 | 30507 ft | 427 kts | 66° |
| 2026-04-15 09:50 | 43.25739 | 49.04057 | 30908 ft | 430 kts | 66° |
| 2026-04-15 09:50 | 43.26940 | 49.07850 | 31222 ft | 435 kts | 66° |
| 2026-04-15 09:50 | 43.28134 | 49.11630 | 31595 ft | 437 kts | 66° |
| 2026-04-15 09:50 | 43.29340 | 49.15461 | 32030 ft | 438 kts | 66° |
| 2026-04-15 09:51 | 43.30547 | 49.19305 | 32522 ft | 437 kts | 66° |
| 2026-04-15 09:51 | 43.31747 | 49.23138 | 32945 ft | 438 kts | 66° |
| 2026-04-15 09:51 | 43.32938 | 49.26943 | 33340 ft | 439 kts | 66° |
| 2026-04-15 09:51 | 43.34153 | 49.30826 | 33718 ft | 440 kts | 66° |
| 2026-04-15 09:52 | 43.35347 | 49.34651 | 34092 ft | 441 kts | 65° |
| 2026-04-15 09:52 | 43.36562 | 49.38550 | 34518 ft | 440 kts | 65° |
| 2026-04-15 09:52 | 43.37767 | 49.42419 | 34851 ft | 441 kts | 65° |
| 2026-04-15 09:52 | 43.38963 | 49.46267 | 35067 ft | 442 kts | 65° |
| 2026-04-15 09:53 | 43.40169 | 49.50149 | 35263 ft | 442 kts | 65° |
| 2026-04-15 09:53 | 43.41362 | 49.53996 | 35482 ft | 442 kts | 65° |
| 2026-04-15 09:53 | 43.42564 | 49.57880 | 35912 ft | 442 kts | 65° |
| 2026-04-15 09:53 | 43.43772 | 49.61784 | 36099 ft | 441 kts | 65° |
| 2026-04-15 09:54 | 43.44953 | 49.65611 | 35882 ft | 431 kts | 66° |
| 2026-04-15 09:54 | 43.46112 | 49.69375 | 35913 ft | 427 kts | 66° |
| 2026-04-15 09:54 | 43.47267 | 49.73132 | 36330 ft | 424 kts | 66° |
| 2026-04-15 09:54 | 43.48409 | 49.76844 | 36172 ft | 429 kts | 65° |
| 2026-04-15 09:55 | 43.50714 | 49.84354 | 36125 ft | 427 kts | 65° |
| 2026-04-15 09:55 | 43.52923 | 49.91568 | 36102 ft | 426 kts | 65° |
| 2026-04-15 09:56 | 43.55212 | 49.99066 | 36119 ft | 427 kts | 65° |
| 2026-04-15 09:57 | 43.58649 | 50.10377 | 36100 ft | 425 kts | 66° |
| 2026-04-15 09:57 | 43.60909 | 50.17842 | 36104 ft | 424 kts | 65° |
| 2026-04-15 09:58 | 43.63171 | 50.25332 | 36095 ft | 423 kts | 66° |
| 2026-04-15 09:58 | 43.65420 | 50.32800 | 36085 ft | 424 kts | 65° |
| 2026-04-15 09:59 | 43.67667 | 50.40285 | 36077 ft | 423 kts | 65° |
| 2026-04-15 09:59 | 43.69920 | 50.47812 | 36086 ft | 424 kts | 66° |
| 2026-04-15 10:00 | 43.72157 | 50.55308 | 36066 ft | 422 kts | 66° |
| 2026-04-15 10:00 | 43.74386 | 50.62794 | 36070 ft | 423 kts | 66° |
| 2026-04-15 10:01 | 43.76609 | 50.70289 | 36059 ft | 421 kts | 66° |
| 2026-04-15 10:01 | 43.78826 | 50.77780 | 36051 ft | 422 kts | 66° |
| 2026-04-15 10:02 | 43.81034 | 50.85265 | 36046 ft | 423 kts | 66° |
| 2026-04-15 10:02 | 43.83283 | 50.92838 | 36048 ft | 423 kts | 65° |
| 2026-04-15 10:03 | 43.86240 | 50.99766 | 36061 ft | 420 kts | 48° |
| 2026-04-15 10:03 | 43.90656 | 51.04965 | 36040 ft | 418 kts | 33° |
| 2026-04-15 10:04 | 43.95830 | 51.08507 | 36041 ft | 418 kts | 18° |
| 2026-04-15 10:04 | 44.01521 | 51.10281 | 36033 ft | 418 kts | 11° |
| 2026-04-15 10:05 | 44.07251 | 51.11563 | 36030 ft | 419 kts | 10° |
| 2026-04-15 10:05 | 44.13011 | 51.12845 | 36018 ft | 418 kts | 10° |
| 2026-04-15 10:06 | 44.18721 | 51.14183 | 36010 ft | 418 kts | 11° |
| 2026-04-15 10:06 | 44.24458 | 51.15572 | 36002 ft | 417 kts | 11° |
| 2026-04-15 10:07 | 44.30163 | 51.16975 | 35997 ft | 417 kts | 11° |
| 2026-04-15 10:07 | 44.35836 | 51.18378 | 35996 ft | 416 kts | 11° |
| 2026-04-15 10:07 | 44.38696 | 51.19087 | 35772 ft | 415 kts | 11° |
| 2026-04-15 10:08 | 44.41528 | 51.19791 | 36022 ft | 416 kts | 11° |
| 2026-04-15 10:08 | 44.44379 | 51.20499 | 35815 ft | 413 kts | 11° |
| 2026-04-15 10:08 | 44.47196 | 51.21199 | 35846 ft | 414 kts | 11° |
| 2026-04-15 10:09 | 44.52854 | 51.22610 | 35981 ft | 414 kts | 11° |
| 2026-04-15 10:09 | 44.58520 | 51.24025 | 35992 ft | 417 kts | 11° |
| 2026-04-15 10:10 | 44.64226 | 51.25451 | 35993 ft | 417 kts | 11° |
| 2026-04-15 10:10 | 44.69956 | 51.26885 | 35987 ft | 416 kts | 11° |
| 2026-04-15 10:11 | 44.75611 | 51.28303 | 35978 ft | 415 kts | 11° |
| 2026-04-15 10:11 | 44.81314 | 51.29730 | 35979 ft | 415 kts | 11° |
| 2026-04-15 10:12 | 44.86982 | 51.30968 | 35966 ft | 415 kts | 9° |
| 2026-04-15 10:12 | 44.92729 | 51.32129 | 35968 ft | 416 kts | 9° |
| 2026-04-15 10:13 | 44.98453 | 51.33293 | 35968 ft | 416 kts | 9° |
| 2026-04-15 10:13 | 45.04149 | 51.34470 | 35961 ft | 415 kts | 9° |
| 2026-04-15 10:14 | 45.09841 | 51.35657 | 35964 ft | 415 kts | 9° |
| 2026-04-15 10:14 | 45.15573 | 51.36861 | 35957 ft | 415 kts | 9° |
| 2026-04-15 10:15 | 45.21281 | 51.38063 | 35939 ft | 415 kts | 9° |
| 2026-04-15 10:15 | 45.27000 | 51.39270 | 35937 ft | 415 kts | 9° |
| 2026-04-15 10:16 | 45.32714 | 51.40479 | 35921 ft | 414 kts | 9° |
| 2026-04-15 10:16 | 45.38382 | 51.41680 | 35933 ft | 414 kts | 9° |
| 2026-04-15 10:17 | 45.44088 | 51.42892 | 35914 ft | 414 kts | 9° |
| 2026-04-15 10:17 | 45.49772 | 51.44103 | 35916 ft | 415 kts | 9° |
| 2026-04-15 10:18 | 45.55499 | 51.45325 | 35910 ft | 415 kts | 9° |
| 2026-04-15 10:18 | 45.61172 | 51.46537 | 35897 ft | 415 kts | 10° |
| 2026-04-15 10:19 | 45.66869 | 51.47758 | 35907 ft | 414 kts | 10° |
| 2026-04-15 10:19 | 45.72539 | 51.48975 | 35910 ft | 413 kts | 9° |
| 2026-04-15 10:20 | 45.78240 | 51.50203 | 35903 ft | 415 kts | 10° |
| 2026-04-15 10:20 | 45.83927 | 51.51431 | 35892 ft | 414 kts | 9° |
| 2026-04-15 10:21 | 45.89607 | 51.52658 | 35892 ft | 414 kts | 10° |
| 2026-04-15 10:21 | 45.95312 | 51.53893 | 35888 ft | 413 kts | 10° |
| 2026-04-15 10:22 | 46.00965 | 51.55121 | 35895 ft | 414 kts | 10° |
| 2026-04-15 10:22 | 46.06700 | 51.56369 | 35876 ft | 414 kts | 10° |
| 2026-04-15 10:23 | 46.12381 | 51.57608 | 35875 ft | 413 kts | 10° |
| 2026-04-15 10:23 | 46.18044 | 51.58846 | 35871 ft | 414 kts | 10° |
| 2026-04-15 10:24 | 46.23747 | 51.60097 | 35868 ft | 415 kts | 10° |
| 2026-04-15 10:24 | 46.29452 | 51.61351 | 35858 ft | 416 kts | 10° |
| 2026-04-15 10:25 | 46.35155 | 51.62604 | 35868 ft | 415 kts | 10° |
| 2026-04-15 10:25 | 46.40865 | 51.63864 | 35863 ft | 416 kts | 10° |
| 2026-04-15 10:26 | 46.46575 | 51.65121 | 35851 ft | 416 kts | 11° |
| 2026-04-15 10:26 | 46.52293 | 51.66373 | 35853 ft | 415 kts | 11° |
| 2026-04-15 10:27 | 46.58009 | 51.67623 | 35844 ft | 416 kts | 11° |
| 2026-04-15 10:27 | 46.63732 | 51.68878 | 35827 ft | 416 kts | 11° |
| 2026-04-15 10:28 | 46.69421 | 51.70130 | 35825 ft | 417 kts | 11° |
| 2026-04-15 10:28 | 46.75170 | 51.71401 | 35816 ft | 417 kts | 11° |
| 2026-04-15 10:29 | 46.80896 | 51.72670 | 35811 ft | 419 kts | 11° |
| 2026-04-15 10:29 | 46.86633 | 51.73943 | 35812 ft | 419 kts | 11° |
| 2026-04-15 10:30 | 46.92403 | 51.75226 | 35813 ft | 418 kts | 11° |
| 2026-04-15 10:30 | 46.98147 | 51.76506 | 35821 ft | 418 kts | 11° |
| 2026-04-15 10:31 | 47.03885 | 51.77788 | 35818 ft | 419 kts | 11° |
| 2026-04-15 10:31 | 47.09684 | 51.79087 | 35817 ft | 420 kts | 11° |
| 2026-04-15 10:32 | 47.15473 | 51.79943 | 35817 ft | 422 kts | 5° |
| 2026-04-15 10:32 | 47.21363 | 51.79867 | 35816 ft | 425 kts | 1° |
| 2026-04-15 10:33 | 47.27267 | 51.79497 | 35815 ft | 424 kts | 0° |
| 2026-04-15 10:33 | 47.33138 | 51.79097 | 35813 ft | 424 kts | 0° |
| 2026-04-15 10:34 | 47.39052 | 51.78715 | 35811 ft | 426 kts | 1° |
| 2026-04-15 10:34 | 47.44987 | 51.78350 | 35810 ft | 427 kts | 1° |
| 2026-04-15 10:35 | 47.50874 | 51.77993 | 35811 ft | 427 kts | 1° |
| 2026-04-15 10:35 | 47.56813 | 51.77638 | 35817 ft | 427 kts | 0° |
| 2026-04-15 10:36 | 47.62767 | 51.77279 | 35812 ft | 427 kts | 1° |
| 2026-04-15 10:36 | 47.68699 | 51.76922 | 35816 ft | 426 kts | 1° |
| 2026-04-15 10:37 | 47.74636 | 51.76565 | 35806 ft | 429 kts | 1° |
| 2026-04-15 10:37 | 47.80576 | 51.76208 | 35802 ft | 430 kts | 1° |
| 2026-04-15 10:38 | 47.86568 | 51.75846 | 35808 ft | 429 kts | 1° |
| 2026-04-15 10:38 | 47.92541 | 51.75479 | 35800 ft | 430 kts | 1° |
| 2026-04-15 10:39 | 47.98488 | 51.75107 | 35795 ft | 430 kts | 1° |
| 2026-04-15 10:39 | 48.04488 | 51.74732 | 35803 ft | 430 kts | 1° |
| 2026-04-15 10:40 | 48.10450 | 51.74360 | 35802 ft | 432 kts | 1° |
| 2026-04-15 10:40 | 48.16439 | 51.73986 | 35801 ft | 432 kts | 1° |
| 2026-04-15 10:41 | 48.22430 | 51.73609 | 35799 ft | 430 kts | 1° |
| 2026-04-15 10:41 | 48.28417 | 51.73233 | 35801 ft | 431 kts | 1° |
| 2026-04-15 10:42 | 48.34389 | 51.72857 | 35812 ft | 431 kts | 1° |
| 2026-04-15 10:42 | 48.40386 | 51.72479 | 35820 ft | 432 kts | 1° |
| 2026-04-15 10:43 | 48.46375 | 51.72101 | 35812 ft | 433 kts | 0° |
| 2026-04-15 10:43 | 48.52416 | 51.71717 | 35824 ft | 433 kts | 0° |
| 2026-04-15 10:44 | 48.58392 | 51.71337 | 35832 ft | 432 kts | 0° |
| 2026-04-15 10:44 | 48.64414 | 51.70953 | 35838 ft | 432 kts | 0° |
| 2026-04-15 10:45 | 48.70424 | 51.70568 | 35840 ft | 433 kts | 1° |
| 2026-04-15 10:45 | 48.76418 | 51.70183 | 35844 ft | 433 kts | 0° |
| 2026-04-15 10:46 | 48.82458 | 51.69795 | 35845 ft | 434 kts | 0° |
| 2026-04-15 10:46 | 48.88456 | 51.69409 | 35841 ft | 433 kts | 1° |
| 2026-04-15 10:47 | 48.94505 | 51.69019 | 35853 ft | 435 kts | 0° |
| 2026-04-15 10:47 | 49.00500 | 51.68632 | 35848 ft | 433 kts | 0° |
| 2026-04-15 10:48 | 49.06540 | 51.68240 | 35851 ft | 434 kts | 0° |
| 2026-04-15 10:48 | 49.12588 | 51.67847 | 35854 ft | 435 kts | 0° |
| 2026-04-15 10:49 | 49.18598 | 51.67455 | 35850 ft | 435 kts | 0° |
| 2026-04-15 10:49 | 49.24656 | 51.67057 | 35853 ft | 434 kts | 0° |
| 2026-04-15 10:50 | 49.30689 | 51.66660 | 35847 ft | 436 kts | 0° |
| 2026-04-15 10:50 | 49.36718 | 51.66264 | 35846 ft | 435 kts | 0° |
| 2026-04-15 10:51 | 49.42774 | 51.65866 | 35849 ft | 437 kts | 0° |
| 2026-04-15 10:51 | 49.48855 | 51.65463 | 35846 ft | 437 kts | 0° |
| 2026-04-15 10:52 | 49.54908 | 51.65060 | 35851 ft | 438 kts | 0° |
| 2026-04-15 10:52 | 49.60996 | 51.64655 | 35853 ft | 437 kts | 0° |
| 2026-04-15 10:53 | 49.67065 | 51.64249 | 35853 ft | 438 kts | 0° |
| 2026-04-15 10:53 | 49.73124 | 51.63844 | 35856 ft | 438 kts | 0° |
| 2026-04-15 10:54 | 49.79192 | 51.63438 | 35859 ft | 438 kts | 0° |
| 2026-04-15 10:54 | 49.85280 | 51.63029 | 35866 ft | 438 kts | 0° |
| 2026-04-15 10:55 | 49.91367 | 51.62619 | 35875 ft | 440 kts | 0° |
| 2026-04-15 10:55 | 49.97473 | 51.62206 | 35875 ft | 440 kts | 0° |
| 2026-04-15 10:56 | 50.03585 | 51.61792 | 35872 ft | 440 kts | 0° |
| 2026-04-15 10:56 | 50.09666 | 51.61379 | 35883 ft | 440 kts | 360° |
| 2026-04-15 10:57 | 50.15783 | 51.60962 | 35876 ft | 439 kts | 360° |
| 2026-04-15 10:57 | 50.24930 | 51.60338 | 35887 ft | 440 kts | 360° |
| 2026-04-15 10:58 | 50.31013 | 51.59922 | 35889 ft | 440 kts | 360° |
| 2026-04-15 10:58 | 50.37110 | 51.59502 | 35895 ft | 439 kts | 360° |
| 2026-04-15 10:59 | 50.43221 | 51.59082 | 35900 ft | 439 kts | 359° |
| 2026-04-15 10:59 | 50.49325 | 51.58677 | 35897 ft | 439 kts | 360° |
| 2026-04-15 11:00 | 50.55401 | 51.58286 | 35897 ft | 439 kts | 359° |
| 2026-04-15 11:00 | 50.61498 | 51.57894 | 35914 ft | 440 kts | 359° |
| 2026-04-15 11:01 | 50.67576 | 51.57500 | 35908 ft | 439 kts | 359° |
| 2026-04-15 11:01 | 50.73675 | 51.57102 | 35904 ft | 439 kts | 359° |
| 2026-04-15 11:02 | 50.79784 | 51.56702 | 35905 ft | 440 kts | 359° |
| 2026-04-15 11:02 | 50.85902 | 51.56300 | 35913 ft | 441 kts | 359° |
| 2026-04-15 11:03 | 50.91997 | 51.55898 | 35920 ft | 440 kts | 359° |
| 2026-04-15 11:03 | 50.98129 | 51.55492 | 35928 ft | 441 kts | 359° |
| 2026-04-15 11:04 | 51.04219 | 51.55032 | 35930 ft | 441 kts | 357° |
| 2026-04-15 11:04 | 51.10209 | 51.52888 | 35931 ft | 445 kts | 339° |
| 2026-04-15 11:05 | 51.15447 | 51.47596 | 35941 ft | 450 kts | 322° |
| 2026-04-15 11:05 | 51.19601 | 51.40284 | 35946 ft | 454 kts | 305° |
| 2026-04-15 11:06 | 51.22708 | 51.31499 | 35954 ft | 455 kts | 299° |
| 2026-04-15 11:06 | 51.25558 | 51.22530 | 35951 ft | 454 kts | 298° |
| 2026-04-15 11:07 | 51.28397 | 51.13565 | 35957 ft | 454 kts | 298° |
| 2026-04-15 11:07 | 51.31273 | 51.04588 | 35966 ft | 454 kts | 299° |
| 2026-04-15 11:08 | 51.34161 | 50.95636 | 35952 ft | 454 kts | 299° |
| 2026-04-15 11:08 | 51.37060 | 50.86653 | 35966 ft | 454 kts | 299° |
| 2026-04-15 11:09 | 51.39933 | 50.77739 | 35964 ft | 454 kts | 299° |
| 2026-04-15 11:09 | 51.42835 | 50.68708 | 35966 ft | 454 kts | 299° |
| 2026-04-15 11:10 | 51.45708 | 50.59733 | 35981 ft | 453 kts | 299° |
| 2026-04-15 11:10 | 51.48573 | 50.50749 | 35981 ft | 453 kts | 299° |
| 2026-04-15 11:11 | 51.51428 | 50.41766 | 35980 ft | 453 kts | 299° |
| 2026-04-15 11:11 | 51.54280 | 50.32758 | 35978 ft | 454 kts | 298° |
| 2026-04-15 11:12 | 51.57118 | 50.23758 | 35986 ft | 453 kts | 298° |
| 2026-04-15 11:12 | 51.59962 | 50.14710 | 35986 ft | 453 kts | 298° |
| 2026-04-15 11:13 | 51.62775 | 50.05727 | 35995 ft | 453 kts | 298° |
| 2026-04-15 11:13 | 51.65603 | 49.96665 | 35985 ft | 453 kts | 298° |
| 2026-04-15 11:14 | 51.68358 | 49.87508 | 35994 ft | 453 kts | 296° |
| 2026-04-15 11:14 | 51.70926 | 49.78328 | 35997 ft | 453 kts | 295° |
| 2026-04-15 11:15 | 51.73484 | 49.69036 | 35993 ft | 453 kts | 295° |
| 2026-04-15 11:15 | 51.76044 | 49.59747 | 35992 ft | 454 kts | 296° |
| 2026-04-15 11:16 | 51.78596 | 49.50502 | 35998 ft | 453 kts | 296° |
| 2026-04-15 11:16 | 51.81166 | 49.41190 | 35998 ft | 453 kts | 296° |
| 2026-04-15 11:17 | 51.83718 | 49.31922 | 36005 ft | 452 kts | 295° |
| 2026-04-15 11:17 | 51.86264 | 49.22649 | 36002 ft | 453 kts | 295° |
| 2026-04-15 11:18 | 51.88807 | 49.13342 | 36008 ft | 453 kts | 295° |
| 2026-04-15 11:18 | 51.91334 | 49.04060 | 36011 ft | 453 kts | 295° |
| 2026-04-15 11:19 | 51.93858 | 48.94754 | 36012 ft | 452 kts | 295° |
| 2026-04-15 11:19 | 51.96379 | 48.85416 | 36013 ft | 452 kts | 295° |
| 2026-04-15 11:20 | 51.98883 | 48.76105 | 36009 ft | 452 kts | 295° |
| 2026-04-15 11:20 | 52.01375 | 48.66785 | 36018 ft | 452 kts | 295° |
| 2026-04-15 11:21 | 52.03866 | 48.57423 | 36019 ft | 452 kts | 295° |
| 2026-04-15 11:21 | 52.06355 | 48.48031 | 36014 ft | 452 kts | 295° |
| 2026-04-15 11:22 | 52.08819 | 48.38695 | 36025 ft | 452 kts | 295° |
| 2026-04-15 11:22 | 52.11291 | 48.29292 | 36025 ft | 451 kts | 294° |
| 2026-04-15 11:23 | 52.13740 | 48.19939 | 36027 ft | 451 kts | 294° |
| 2026-04-15 11:23 | 52.16243 | 48.10602 | 36030 ft | 451 kts | 295° |
| 2026-04-15 11:24 | 52.18815 | 48.01261 | 36026 ft | 451 kts | 295° |
| 2026-04-15 11:24 | 52.21372 | 47.91969 | 36033 ft | 451 kts | 295° |
| 2026-04-15 11:25 | 52.23933 | 47.82597 | 36041 ft | 452 kts | 295° |
| 2026-04-15 11:25 | 52.26471 | 47.73249 | 36044 ft | 452 kts | 295° |
| 2026-04-15 11:26 | 52.28993 | 47.63902 | 36051 ft | 451 kts | 295° |
| 2026-04-15 11:26 | 52.31514 | 47.54516 | 36057 ft | 451 kts | 295° |
| 2026-04-15 11:27 | 52.34013 | 47.45169 | 36057 ft | 452 kts | 295° |
| 2026-04-15 11:27 | 52.36528 | 47.35738 | 36062 ft | 452 kts | 295° |
| 2026-04-15 11:28 | 52.39025 | 47.26337 | 36059 ft | 453 kts | 294° |
| 2026-04-15 11:28 | 52.41520 | 47.16904 | 36071 ft | 451 kts | 294° |
| 2026-04-15 11:29 | 52.43998 | 47.07492 | 36071 ft | 452 kts | 294° |
| 2026-04-15 11:29 | 52.46474 | 46.98053 | 36076 ft | 453 kts | 294° |
| 2026-04-15 11:30 | 52.48944 | 46.88600 | 36080 ft | 454 kts | 294° |
| 2026-04-15 11:30 | 52.51412 | 46.79108 | 36084 ft | 454 kts | 294° |
| 2026-04-15 11:31 | 52.53872 | 46.69584 | 36088 ft | 453 kts | 294° |
| 2026-04-15 11:31 | 52.56321 | 46.60051 | 36082 ft | 454 kts | 294° |
| 2026-04-15 11:32 | 52.58752 | 46.50554 | 36077 ft | 454 kts | 294° |
| 2026-04-15 11:32 | 52.61187 | 46.41001 | 36088 ft | 454 kts | 294° |
| 2026-04-15 11:33 | 52.63591 | 46.31395 | 36092 ft | 455 kts | 291° |
| 2026-04-15 11:33 | 52.65811 | 46.21656 | 36087 ft | 455 kts | 290° |
| 2026-04-15 11:34 | 52.67956 | 46.11877 | 36088 ft | 455 kts | 290° |
| 2026-04-15 11:34 | 52.70105 | 46.02067 | 36091 ft | 454 kts | 290° |
| 2026-04-15 11:35 | 52.72254 | 45.92287 | 36086 ft | 453 kts | 290° |
| 2026-04-15 11:35 | 52.74391 | 45.82572 | 36095 ft | 455 kts | 290° |
| 2026-04-15 11:36 | 52.76539 | 45.72788 | 36090 ft | 456 kts | 290° |
| 2026-04-15 11:36 | 52.78697 | 45.62920 | 36087 ft | 456 kts | 290° |
| 2026-04-15 11:37 | 52.80836 | 45.53093 | 36085 ft | 457 kts | 290° |
| 2026-04-15 11:37 | 52.82962 | 45.43279 | 36085 ft | 456 kts | 290° |
| 2026-04-15 11:38 | 52.85082 | 45.33420 | 36088 ft | 456 kts | 290° |
| 2026-04-15 11:38 | 52.87200 | 45.23523 | 36086 ft | 457 kts | 289° |
| 2026-04-15 11:39 | 52.89316 | 45.13583 | 36085 ft | 457 kts | 289° |
| 2026-04-15 11:39 | 52.91412 | 45.03690 | 36087 ft | 458 kts | 289° |
| 2026-04-15 11:40 | 52.93526 | 44.93743 | 36080 ft | 458 kts | 290° |
| 2026-04-15 11:40 | 52.95719 | 44.83889 | 36085 ft | 458 kts | 291° |
| 2026-04-15 11:41 | 52.97957 | 44.73970 | 36085 ft | 459 kts | 291° |
| 2026-04-15 11:41 | 53.00172 | 44.64104 | 36090 ft | 457 kts | 291° |
| 2026-04-15 11:42 | 53.02372 | 44.54214 | 36093 ft | 458 kts | 290° |
| 2026-04-15 11:42 | 53.04552 | 44.44342 | 36090 ft | 459 kts | 290° |
| 2026-04-15 11:43 | 53.06743 | 44.34347 | 36092 ft | 460 kts | 289° |
| 2026-04-15 11:43 | 53.08915 | 44.24378 | 36092 ft | 459 kts | 289° |
| 2026-04-15 11:44 | 53.11068 | 44.14440 | 36098 ft | 459 kts | 289° |
| 2026-04-15 11:44 | 53.13234 | 44.04396 | 36096 ft | 459 kts | 289° |
| 2026-04-15 11:45 | 53.15376 | 43.94415 | 36100 ft | 458 kts | 289° |
| 2026-04-15 11:45 | 53.17500 | 43.84468 | 36109 ft | 459 kts | 289° |
| 2026-04-15 11:46 | 53.19640 | 43.74398 | 36108 ft | 459 kts | 289° |
| 2026-04-15 11:46 | 53.21753 | 43.64404 | 36111 ft | 459 kts | 289° |
| 2026-04-15 11:47 | 53.23853 | 43.54425 | 36113 ft | 458 kts | 289° |
| 2026-04-15 11:47 | 53.25954 | 43.44391 | 36113 ft | 459 kts | 289° |
| 2026-04-15 11:48 | 53.28046 | 43.34352 | 36118 ft | 457 kts | 288° |
| 2026-04-15 11:48 | 53.30123 | 43.24335 | 36118 ft | 458 kts | 288° |
| 2026-04-15 11:49 | 53.32193 | 43.14305 | 36124 ft | 458 kts | 288° |
| 2026-04-15 11:49 | 53.34256 | 43.04252 | 36125 ft | 457 kts | 288° |
| 2026-04-15 11:50 | 53.36312 | 42.94186 | 36132 ft | 461 kts | 288° |
| 2026-04-15 11:50 | 53.38366 | 42.84078 | 36131 ft | 459 kts | 288° |
| 2026-04-15 11:51 | 53.40419 | 42.73917 | 36136 ft | 460 kts | 288° |
| 2026-04-15 11:51 | 53.42454 | 42.63799 | 36144 ft | 459 kts | 288° |
| 2026-04-15 11:52 | 53.44489 | 42.53627 | 36139 ft | 460 kts | 288° |
| 2026-04-15 11:52 | 53.46720 | 42.43663 | 36145 ft | 461 kts | 293° |
| 2026-04-15 11:53 | 53.49417 | 42.33922 | 36141 ft | 461 kts | 295° |
| 2026-04-15 11:53 | 53.52238 | 42.24215 | 36142 ft | 462 kts | 295° |
| 2026-04-15 11:54 | 53.55042 | 42.14497 | 36143 ft | 463 kts | 295° |
| 2026-04-15 11:54 | 53.57800 | 42.04794 | 36147 ft | 462 kts | 295° |
| 2026-04-15 11:55 | 53.60538 | 41.95047 | 36147 ft | 462 kts | 295° |
| 2026-04-15 11:55 | 53.63250 | 41.85311 | 36149 ft | 461 kts | 295° |
| 2026-04-15 11:56 | 53.65953 | 41.75551 | 36149 ft | 462 kts | 295° |
| 2026-04-15 11:56 | 53.68940 | 41.65991 | 36152 ft | 462 kts | 302° |
| 2026-04-15 11:57 | 53.74495 | 41.52655 | 36152 ft | 462 kts | 307° |
| 2026-04-15 11:58 | 53.78345 | 41.43990 | 36155 ft | 462 kts | 307° |
| 2026-04-15 11:58 | 53.82155 | 41.35365 | 36156 ft | 461 kts | 307° |
| 2026-04-15 11:59 | 53.85974 | 41.26611 | 36155 ft | 461 kts | 306° |
| 2026-04-15 11:59 | 53.89755 | 41.17858 | 36157 ft | 462 kts | 306° |
| 2026-04-15 12:00 | 53.93489 | 41.09013 | 36160 ft | 462 kts | 303° |
| 2026-04-15 12:00 | 53.96496 | 40.99426 | 36161 ft | 463 kts | 291° |
| 2026-04-15 12:01 | 53.98599 | 40.89143 | 36158 ft | 461 kts | 286° |
| 2026-04-15 12:01 | 54.00421 | 40.78676 | 36162 ft | 461 kts | 285° |
| 2026-04-15 12:02 | 54.02202 | 40.68213 | 36162 ft | 463 kts | 285° |
| 2026-04-15 12:02 | 54.03983 | 40.57866 | 36170 ft | 463 kts | 285° |
| 2026-04-15 12:03 | 54.05829 | 40.47244 | 36178 ft | 465 kts | 285° |
| 2026-04-15 12:03 | 54.07673 | 40.36656 | 36186 ft | 465 kts | 285° |
| 2026-04-15 12:04 | 54.09501 | 40.26121 | 36153 ft | 467 kts | 284° |
| 2026-04-15 12:04 | 54.10419 | 40.20812 | 35971 ft | 469 kts | 284° |
| 2026-04-15 12:04 | 54.11333 | 40.15520 | 35784 ft | 467 kts | 284° |
| 2026-04-15 12:04 | 54.12156 | 40.10153 | 35594 ft | 467 kts | 280° |
| 2026-04-15 12:05 | 54.12803 | 40.04745 | 35407 ft | 467 kts | 277° |
| 2026-04-15 12:05 | 54.13347 | 39.99323 | 35195 ft | 467 kts | 276° |
| 2026-04-15 12:05 | 54.13848 | 39.93834 | 34907 ft | 466 kts | 275° |
| 2026-04-15 12:05 | 54.14325 | 39.88447 | 34622 ft | 466 kts | 276° |
| 2026-04-15 12:06 | 54.14813 | 39.82920 | 34336 ft | 467 kts | 276° |
| 2026-04-15 12:06 | 54.15300 | 39.77504 | 34055 ft | 466 kts | 276° |
| 2026-04-15 12:06 | 54.15799 | 39.72028 | 33773 ft | 467 kts | 276° |
| 2026-04-15 12:06 | 54.16300 | 39.66595 | 33494 ft | 467 kts | 276° |
| 2026-04-15 12:07 | 54.16810 | 39.61114 | 33212 ft | 467 kts | 276° |
| 2026-04-15 12:07 | 54.17313 | 39.55717 | 32938 ft | 468 kts | 276° |
| 2026-04-15 12:07 | 54.17824 | 39.50255 | 32662 ft | 468 kts | 276° |
| 2026-04-15 12:07 | 54.18337 | 39.44758 | 32380 ft | 467 kts | 276° |
| 2026-04-15 12:08 | 54.18849 | 39.39255 | 31686 ft | 470 kts | 276° |
| 2026-04-15 12:08 | 54.19353 | 39.33816 | 30838 ft | 470 kts | 275° |
| 2026-04-15 12:08 | 54.19862 | 39.28303 | 29947 ft | 470 kts | 275° |
| 2026-04-15 12:08 | 54.20366 | 39.22842 | 29227 ft | 467 kts | 275° |
| 2026-04-15 12:09 | 54.20871 | 39.17416 | 28703 ft | 459 kts | 275° |
| 2026-04-15 12:09 | 54.21371 | 39.12172 | 28169 ft | 453 kts | 276° |
| 2026-04-15 12:09 | 54.21892 | 39.06817 | 27343 ft | 454 kts | 276° |
| 2026-04-15 12:09 | 54.22410 | 39.01558 | 26287 ft | 460 kts | 277° |
| 2026-04-15 12:10 | 54.22944 | 38.96139 | 25303 ft | 463 kts | 277° |
| 2026-04-15 12:10 | 54.23482 | 38.90747 | 24625 ft | 459 kts | 277° |
| 2026-04-15 12:10 | 54.24020 | 38.85436 | 24118 ft | 451 kts | 277° |
| 2026-04-15 12:10 | 54.24560 | 38.80192 | 23398 ft | 450 kts | 278° |
| 2026-04-15 12:11 | 54.25119 | 38.74900 | 22426 ft | 454 kts | 278° |
| 2026-04-15 12:11 | 54.25694 | 38.69581 | 21578 ft | 455 kts | 278° |
| 2026-04-15 12:11 | 54.26281 | 38.64320 | 20994 ft | 448 kts | 278° |
| 2026-04-15 12:11 | 54.26878 | 38.59174 | 20378 ft | 444 kts | 279° |
| 2026-04-15 12:12 | 54.27500 | 38.53966 | 19441 ft | 448 kts | 279° |
| 2026-04-15 12:12 | 54.28143 | 38.48743 | 18454 ft | 453 kts | 279° |
| 2026-04-15 12:12 | 54.28806 | 38.43516 | 17781 ft | 448 kts | 280° |
| 2026-04-15 12:12 | 54.29477 | 38.38385 | 17275 ft | 440 kts | 281° |
| 2026-04-15 12:13 | 54.30157 | 38.33316 | 16464 ft | 440 kts | 280° |
| 2026-04-15 12:13 | 54.30857 | 38.28215 | 15444 ft | 445 kts | 281° |
| 2026-04-15 12:13 | 54.31578 | 38.23056 | 14617 ft | 444 kts | 281° |
| 2026-04-15 12:13 | 54.32310 | 38.17938 | 14052 ft | 435 kts | 281° |
| 2026-04-15 12:14 | 54.33045 | 38.12927 | 13341 ft | 432 kts | 282° |
| 2026-04-15 12:14 | 54.33792 | 38.07927 | 12371 ft | 435 kts | 282° |
| 2026-04-15 12:14 | 54.34544 | 38.02969 | 11667 ft | 429 kts | 282° |
| 2026-04-15 12:14 | 54.35300 | 37.98102 | 11181 ft | 418 kts | 283° |
| 2026-04-15 12:15 | 54.36050 | 37.93379 | 10638 ft | 409 kts | 283° |
| 2026-04-15 12:15 | 54.36808 | 37.88715 | 10061 ft | 402 kts | 283° |
| 2026-04-15 12:15 | 54.37568 | 37.84131 | 9532 ft | 394 kts | 284° |
| 2026-04-15 12:15 | 54.38324 | 37.79666 | 9021 ft | 387 kts | 284° |
| 2026-04-15 12:16 | 54.39070 | 37.75329 | 8542 ft | 379 kts | 285° |
| 2026-04-15 12:16 | 54.39813 | 37.71064 | 8071 ft | 372 kts | 285° |
| 2026-04-15 12:16 | 54.40546 | 37.66813 | 7575 ft | 366 kts | 285° |
| 2026-04-15 12:16 | 54.41226 | 37.62701 | 7069 ft | 361 kts | 284° |
| 2026-04-15 12:17 | 54.41898 | 37.58563 | 6566 ft | 356 kts | 284° |
| 2026-04-15 12:17 | 54.42585 | 37.54527 | 6109 ft | 350 kts | 286° |
| 2026-04-15 12:17 | 54.43296 | 37.50570 | 5693 ft | 344 kts | 287° |
| 2026-04-15 12:17 | 54.44006 | 37.46717 | 5294 ft | 337 kts | 287° |
| 2026-04-15 12:18 | 54.44720 | 37.42903 | 4889 ft | 332 kts | 288° |
| 2026-04-15 12:18 | 54.45434 | 37.39160 | 4477 ft | 327 kts | 288° |
| 2026-04-15 12:18 | 54.46136 | 37.35524 | 4058 ft | 322 kts | 288° |
| 2026-04-15 12:18 | 54.46847 | 37.31876 | 3633 ft | 318 kts | 288° |
| 2026-04-15 12:19 | 54.47548 | 37.28316 | 3234 ft | 313 kts | 288° |
| 2026-04-15 12:19 | 54.48252 | 37.24783 | 2835 ft | 309 kts | 289° |
| 2026-04-15 12:19 | 54.48943 | 37.21347 | 2440 ft | 305 kts | 289° |
| 2026-04-15 12:19 | 54.49646 | 37.17931 | 2043 ft | 301 kts | 290° |